Time;durP1;ratioP1;P1;durP2;ratioP2;P2;SDS_P1;SDS_P2;PMS_P1;PMS_P2;Temp;Humidity;BMP_temperature;BMP_pressure;BME280_temperature;BME280_humidity;BME280_pressure;Samples;Min_cycle;Max_cycle;Signal;HPM_P1;HPM_P2
2023/12/15 00:01:23;;;;;;;0.30;0.10;;;;;;;6.43;98.62;101473.63;5070256;28;20543;-50
2023/12/15 00:03:50;;;;;;;1.33;1.07;;;;;;;6.44;98.09;101483.31;5057794;28;20450;-50
2023/12/15 00:06:16;;;;;;;0.30;0.20;;;;;;;6.42;98.02;101479.78;5071211;28;20449;-50
2023/12/15 00:08:44;;;;;;;0.30;0.20;;;;;;;6.50;98.29;101484.25;5057820;28;20451;-49
2023/12/15 00:11:10;;;;;;;0.30;0.20;;;;;;;6.53;97.62;101484.25;5071247;28;20541;-50
2023/12/15 00:13:37;;;;;;;0.30;0.20;;;;;;;6.51;97.80;101491.28;5071052;28;20461;-50
2023/12/15 00:16:04;;;;;;;0.30;0.20;;;;;;;6.50;98.12;101489.53;5070204;28;21021;-50
2023/12/15 00:18:30;;;;;;;0.30;0.20;;;;;;;6.54;98.96;101496.59;5057556;28;20533;-50
2023/12/15 00:20:57;;;;;;;0.30;0.20;;;;;;;6.49;99.01;101489.53;5071415;28;20492;-50
2023/12/15 00:23:23;;;;;;;0.30;0.20;;;;;;;6.54;98.66;101485.16;5070955;28;20588;-50
2023/12/15 00:25:50;;;;;;;0.30;0.20;;;;;;;6.62;98.83;101490.50;5071021;28;20453;-51
2023/12/15 00:28:17;;;;;;;0.30;0.20;;;;;;;6.68;99.62;101494.06;5071045;28;20488;-50
2023/12/15 00:30:43;;;;;;;0.30;0.20;;;;;;;6.62;98.56;101501.94;5070228;28;20456;-50
2023/12/15 00:33:10;;;;;;;0.30;0.20;;;;;;;6.48;99.51;101501.84;5057288;28;20469;-50
2023/12/15 00:35:37;;;;;;;1.57;1.57;;;;;;;6.49;99.40;101500.09;5071191;28;20446;-50
2023/12/15 00:38:03;;;;;;;0.30;0.20;;;;;;;6.40;99.50;101500.00;5070948;28;20512;-50
2023/12/15 00:40:30;;;;;;;0.30;0.20;;;;;;;6.37;99.70;101503.50;5070098;28;20860;-50
2023/12/15 00:42:56;;;;;;;0.30;0.20;;;;;;;6.36;98.90;101504.38;5057372;28;20556;-50
2023/12/15 00:45:23;;;;;;;0.30;0.20;;;;;;;6.41;100.00;101504.41;5070848;28;20486;-50
2023/12/15 00:47:49;;;;;;;0.30;0.20;;;;;;;6.39;99.77;101503.53;5061295;28;21057;-50
2023/12/15 00:50:16;;;;;;;0.30;0.20;;;;;;;6.36;100.00;101506.16;5064028;28;20457;-50
2023/12/15 00:52:43;;;;;;;0.30;0.20;;;;;;;6.34;100.00;101508.78;5067591;28;20482;-50
2023/12/15 00:55:09;;;;;;;0.30;0.20;;;;;;;6.41;100.00;101514.97;5064463;28;20450;-50
2023/12/15 00:57:36;;;;;;;0.30;0.20;;;;;;;6.48;100.00;101516.81;5074177;28;20498;-50
2023/12/15 01:00:03;;;;;;;0.30;0.20;;;;;;;6.43;99.76;101515.88;5074278;28;20450;-50
2023/12/15 01:02:30;;;;;;;0.30;0.20;;;;;;;6.48;100.00;101520.34;5066324;28;20444;-50
2023/12/15 01:04:56;;;;;;;0.30;0.20;;;;;;;6.51;99.62;101535.31;5072353;28;20508;-50
2023/12/15 01:07:23;;;;;;;0.30;0.20;;;;;;;6.52;99.31;101534.44;5069565;28;20496;-50
2023/12/15 01:09:49;;;;;;;0.30;0.20;;;;;;;6.40;99.47;101539.63;5065825;28;20446;-50
2023/12/15 01:12:16;;;;;;;0.30;0.20;;;;;;;6.35;100.00;101538.72;5073920;28;20474;-50
2023/12/15 01:14:43;;;;;;;0.30;0.20;;;;;;;6.41;100.00;101552.84;5073903;28;20796;-50
2023/12/15 01:17:09;;;;;;;0.30;0.20;;;;;;;6.38;99.40;101546.66;5073941;28;20572;-50
2023/12/15 01:19:36;;;;;;;0.30;0.20;;;;;;;6.34;99.92;101537.81;5057307;28;20454;-50
2023/12/15 01:22:02;;;;;;;0.30;0.20;;;;;;;6.41;99.81;101552.84;5072123;28;20441;-50
2023/12/15 01:24:29;;;;;;;0.30;0.20;;;;;;;6.37;99.88;101552.81;5074033;28;20477;-49
2023/12/15 01:26:55;;;;;;;0.30;0.20;;;;;;;6.33;99.51;101548.38;5073807;28;20450;-51
2023/12/15 01:29:22;;;;;;;0.30;0.20;;;;;;;6.32;100.00;101562.44;5072965;28;20454;-50
2023/12/15 01:31:48;;;;;;;0.30;0.20;;;;;;;6.35;99.93;101551.91;5060220;28;20469;-49
2023/12/15 01:34:15;;;;;;;0.30;0.20;;;;;;;6.26;100.00;101546.53;5073955;28;20878;-50
2023/12/15 01:36:42;;;;;;;0.30;0.20;;;;;;;6.29;100.00;101554.47;5068298;28;20572;-50
2023/12/15 01:39:08;;;;;;;0.30;0.20;;;;;;;6.39;99.55;101564.25;5073733;28;20455;-50
2023/12/15 01:41:34;;;;;;;0.30;0.20;;;;;;;6.30;100.00;101569.44;5073283;28;21012;-51
2023/12/15 01:44:01;;;;;;;0.30;0.20;;;;;;;6.35;100.00;101565.09;5073433;28;20449;-50
2023/12/15 01:46:28;;;;;;;0.30;0.20;;;;;;;6.41;99.68;101579.25;5073502;28;20435;-51
2023/12/15 01:48:55;;;;;;;0.30;0.20;;;;;;;6.41;99.70;101579.25;5072915;28;20453;-51
2023/12/15 01:51:21;;;;;;;0.30;0.20;;;;;;;6.41;99.51;101584.53;5067405;28;20455;-51
2023/12/15 01:53:48;;;;;;;0.30;0.20;;;;;;;6.46;99.94;101582.81;5064649;28;20521;-51
2023/12/15 01:56:14;;;;;;;0.30;0.20;;;;;;;6.37;100.00;101589.78;5059469;28;20536;-51
2023/12/15 01:58:41;;;;;;;0.30;0.20;;;;;;;6.40;100.00;101587.16;5063326;28;20483;-51
2023/12/15 02:01:08;;;;;;;0.30;0.20;;;;;;;6.39;99.67;101585.38;5071534;28;20445;-50
2023/12/15 02:03:35;;;;;;;0.30;0.20;;;;;;;6.43;99.91;101582.78;5073123;28;20457;-51
2023/12/15 02:06:01;;;;;;;0.30;0.20;;;;;;;6.38;100.00;101586.25;5072956;28;20442;-52
2023/12/15 02:08:28;;;;;;;0.30;0.20;;;;;;;6.37;100.00;101592.41;5059684;28;20530;-51
2023/12/15 02:10:54;;;;;;;0.30;0.20;;;;;;;6.35;100.00;101596.81;5072779;28;20450;-51
2023/12/15 02:13:21;;;;;;;0.30;0.10;;;;;;;6.34;100.00;101595.91;5065185;28;20470;-52
2023/12/15 02:15:47;;;;;;;0.30;0.20;;;;;;;6.27;100.00;101591.44;5072731;28;20981;-51
2023/12/15 02:18:14;;;;;;;0.30;0.20;;;;;;;6.06;100.00;101594.75;5067219;28;20562;-51
2023/12/15 02:20:40;;;;;;;0.30;0.20;;;;;;;5.96;100.00;101606.06;5072529;28;20903;-52
2023/12/15 02:23:07;;;;;;;0.30;0.20;;;;;;;6.00;100.00;101601.69;5070635;28;20470;-51
2023/12/15 02:25:33;;;;;;;0.30;0.20;;;;;;;5.85;100.00;101594.47;5060225;28;20566;-52
2023/12/15 02:28:00;;;;;;;0.30;0.20;;;;;;;5.61;100.00;101595.03;5072612;28;20528;-51
2023/12/15 02:30:26;;;;;;;0.30;0.20;;;;;;;5.60;100.00;101603.81;5072308;28;20541;-52
2023/12/15 02:32:53;;;;;;;0.30;0.20;;;;;;;5.28;99.60;101603.38;5072167;28;20473;-52
2023/12/15 02:35:19;;;;;;;0.30;0.10;;;;;;;5.17;100.00;101602.34;5072441;28;20454;-51
2023/12/15 02:37:46;;;;;;;0.30;0.20;;;;;;;5.10;99.98;101618.94;5071056;28;20516;-51
2023/12/15 02:40:12;;;;;;;0.30;0.20;;;;;;;4.86;99.40;101616.81;5072379;28;20537;-51
2023/12/15 02:42:39;;;;;;;0.30;0.20;;;;;;;4.76;99.01;101619.28;5072368;28;20474;-51
2023/12/15 02:45:06;;;;;;;0.30;0.20;;;;;;;4.63;98.84;101624.31;5072523;28;20544;-52
2023/12/15 02:47:32;;;;;;;0.30;0.20;;;;;;;4.69;99.33;101624.44;5071505;28;20520;-51
2023/12/15 02:49:59;;;;;;;0.30;0.20;;;;;;;4.59;98.89;101623.38;5062218;28;20461;-51
2023/12/15 02:52:26;;;;;;;0.30;0.10;;;;;;;4.51;99.53;101632.88;5067237;28;20556;-51
2023/12/15 02:54:52;;;;;;;0.30;0.10;;;;;;;4.44;99.75;101634.53;5072177;28;20820;-51
2023/12/15 02:57:19;;;;;;;0.30;0.17;;;;;;;4.37;99.27;101640.53;5066010;28;20488;-51
2023/12/15 02:59:45;;;;;;;0.30;0.20;;;;;;;4.26;99.60;101636.84;5061114;28;20456;-52
2023/12/15 03:02:11;;;;;;;0.30;0.20;;;;;;;4.25;99.21;101642.03;5070739;28;20557;-51
2023/12/15 03:04:38;;;;;;;0.30;0.10;;;;;;;4.16;99.08;101646.28;5071949;28;20454;-51
2023/12/15 03:07:04;;;;;;;0.30;0.10;;;;;;;4.11;99.17;101647.03;5068042;28;20446;-51
2023/12/15 03:09:31;;;;;;;0.30;0.20;;;;;;;3.93;99.23;101631.78;5060838;28;20479;-51
2023/12/15 03:11:57;;;;;;;0.30;0.20;;;;;;;3.98;98.33;101635.41;5071778;28;20469;-51
2023/12/15 03:14:24;;;;;;;0.30;0.20;;;;;;;3.94;98.44;101633.56;5062146;28;20461;-51
2023/12/15 03:16:50;;;;;;;0.30;0.10;;;;;;;3.80;98.40;101630.66;5067652;28;20454;-52
2023/12/15 03:19:17;;;;;;;0.30;0.20;;;;;;;3.76;98.05;101638.47;5066120;28;20910;-51
2023/12/15 03:21:43;;;;;;;0.30;0.20;;;;;;;3.82;99.58;101654.34;5071580;28;20523;-51
2023/12/15 03:24:09;;;;;;;0.30;0.20;;;;;;;3.66;98.73;101653.16;5071972;28;20449;-52
2023/12/15 03:26:36;;;;;;;0.30;0.10;;;;;;;3.64;98.74;101646.09;5063967;28;20537;-51
2023/12/15 03:29:02;;;;;;;0.30;0.10;;;;;;;3.64;98.66;101652.22;5071806;28;20445;-51
2023/12/15 03:31:29;;;;;;;0.30;0.20;;;;;;;3.64;98.94;101653.97;5071501;28;20473;-51
2023/12/15 03:33:55;;;;;;;0.30;0.20;;;;;;;3.79;98.97;101657.81;5071610;28;20460;-51
2023/12/15 03:36:22;;;;;;;0.30;0.20;;;;;;;3.86;98.95;101662.34;5071410;28;20457;-51
2023/12/15 03:38:48;;;;;;;0.30;0.10;;;;;;;3.76;99.25;101657.75;5060600;28;21050;-52
2023/12/15 03:41:15;;;;;;;0.30;0.20;;;;;;;4.00;100.00;101657.38;5068274;28;20505;-53
2023/12/15 03:43:41;;;;;;;0.30;0.20;;;;;;;4.05;99.53;101658.34;5071941;28;20449;-52
2023/12/15 03:46:08;;;;;;;0.30;0.20;;;;;;;4.28;100.00;101665.81;5071486;28;20510;-52
2023/12/15 03:48:34;;;;;;;0.30;0.20;;;;;;;4.31;100.00;101664.13;5062235;28;20550;-51
2023/12/15 03:51:01;;;;;;;0.30;0.10;;;;;;;4.36;100.00;101669.47;5067725;28;20454;-51
2023/12/15 03:53:27;;;;;;;0.30;0.10;;;;;;;4.32;100.00;101672.91;5070515;28;20484;-51
2023/12/15 03:55:54;;;;;;;0.20;0.20;;;;;;;4.31;100.00;101674.66;5067391;28;20533;-51
2023/12/15 03:58:20;;;;;;;0.30;0.20;;;;;;;4.39;100.00;101688.84;5062185;28;20520;-51
2023/12/15 04:00:47;;;;;;;0.30;0.20;;;;;;;4.44;100.00;101686.28;5071313;28;20826;-52
2023/12/15 04:03:13;;;;;;;0.30;0.20;;;;;;;4.47;100.00;101689.88;5071334;28;20562;-51
2023/12/15 04:05:40;;;;;;;0.30;0.20;;;;;;;4.50;100.00;101689.03;5070406;28;20519;-52
2023/12/15 04:08:06;;;;;;;0.30;0.20;;;;;;;4.66;100.00;101685.84;5060524;28;20771;-52
2023/12/15 04:10:33;;;;;;;0.30;0.20;;;;;;;4.59;100.00;101693.59;5067460;28;20449;-52
2023/12/15 04:12:59;;;;;;;0.20;0.10;;;;;;;4.69;100.00;101698.19;5051429;28;20776;-51
2023/12/15 04:15:26;;;;;;;0.30;0.20;;;;;;;4.71;100.00;101702.59;5069024;28;20544;-52
2023/12/15 04:17:52;;;;;;;0.27;0.20;;;;;;;4.72;100.00;101703.50;5059091;28;20518;-51
2023/12/15 04:20:19;;;;;;;0.30;0.20;;;;;;;4.76;100.00;101703.56;5068944;28;20482;-51
2023/12/15 04:22:46;;;;;;;0.30;0.20;;;;;;;4.91;100.00;101709.97;5073626;28;20472;-52
2023/12/15 04:25:12;;;;;;;0.30;0.20;;;;;;;4.90;100.00;101706.44;5074970;28;20540;-52
2023/12/15 04:27:39;;;;;;;0.30;0.20;;;;;;;5.08;100.00;101707.63;5075102;28;20445;-51
2023/12/15 04:30:06;;;;;;;0.20;0.10;;;;;;;5.10;100.00;101706.78;5074822;28;20523;-51
2023/12/15 04:32:33;;;;;;;0.30;0.20;;;;;;;5.01;100.00;101715.41;5062830;28;20478;-51
2023/12/15 04:35:00;;;;;;;0.30;0.20;;;;;;;5.09;100.00;101725.22;5073039;28;20450;-52
2023/12/15 04:37:26;;;;;;;0.23;0.10;;;;;;;5.10;100.00;101721.72;5074043;28;20510;-52
2023/12/15 04:39:53;;;;;;;0.30;0.20;;;;;;;4.97;100.00;101720.63;5061170;28;20839;-52
2023/12/15 04:42:19;;;;;;;0.40;0.40;;;;;;;5.07;100.00;101727.81;5062410;28;20474;-51
2023/12/15 04:44:45;;;;;;;0.30;0.10;;;;;;;4.94;100.00;101728.47;5072944;28;20458;-52
2023/12/15 04:47:12;;;;;;;0.87;0.87;;;;;;;4.90;100.00;101726.63;5074614;28;20450;-52
2023/12/15 04:49:39;;;;;;;0.30;0.20;;;;;;;4.89;100.00;101735.41;5061580;28;20465;-51
2023/12/15 04:52:05;;;;;;;0.30;0.10;;;;;;;4.86;100.00;101732.72;5054367;28;20486;-53
2023/12/15 04:54:32;;;;;;;0.30;0.20;;;;;;;4.96;100.00;101742.56;5072593;28;20468;-52
2023/12/15 04:56:58;;;;;;;0.23;0.10;;;;;;;4.93;100.00;101746.00;5062116;28;20450;-52
2023/12/15 04:59:25;;;;;;;0.30;0.10;;;;;;;4.92;100.00;101751.25;5073311;28;20491;-53
2023/12/15 05:01:51;;;;;;;0.30;0.20;;;;;;;5.00;100.00;101757.56;5074101;28;20474;-52
2023/12/15 05:04:18;;;;;;;0.27;0.20;;;;;;;4.93;100.00;101764.44;5074260;28;20478;-51
2023/12/15 05:06:45;;;;;;;0.30;0.10;;;;;;;4.95;100.00;101765.38;5072838;28;20468;-51
2023/12/15 05:09:11;;;;;;;0.20;0.10;;;;;;;5.06;100.00;101766.44;5059697;28;20529;-51
2023/12/15 05:11:38;;;;;;;0.30;0.20;;;;;;;5.03;100.00;101770.78;5068421;28;20557;-51
2023/12/15 05:14:04;;;;;;;0.30;0.10;;;;;;;5.07;100.00;101777.88;5074213;28;21029;-52
2023/12/15 05:16:32;;;;;;;0.30;0.10;;;;;;;5.13;100.00;101777.13;5061987;28;20457;-52
2023/12/15 05:18:58;;;;;;;0.30;0.20;;;;;;;5.08;100.00;101769.13;5068632;28;20866;-51
2023/12/15 05:21:25;;;;;;;0.30;0.10;;;;;;;5.11;100.00;101774.44;5073942;28;20558;-52
2023/12/15 05:23:52;;;;;;;0.30;0.20;;;;;;;5.14;100.00;101778.88;5074054;28;20484;-51
2023/12/15 05:26:18;;;;;;;0.30;0.20;;;;;;;5.16;100.00;101779.78;5073775;28;20449;-52
2023/12/15 05:28:46;;;;;;;0.30;0.20;;;;;;;5.18;100.00;101786.84;5073792;28;20457;-53
2023/12/15 05:31:13;;;;;;;0.30;0.20;;;;;;;5.26;100.00;101790.53;5072463;28;20927;-51
2023/12/15 05:33:39;;;;;;;0.30;0.10;;;;;;;5.32;100.00;101810.81;5060999;28;20537;-51
2023/12/15 05:36:06;;;;;;;0.20;0.10;;;;;;;5.34;100.00;101807.38;5073743;28;20480;-51
2023/12/15 05:38:32;;;;;;;0.30;0.20;;;;;;;5.24;100.00;101810.72;5073480;28;21061;-52
2023/12/15 05:41:00;;;;;;;0.30;0.10;;;;;;;5.31;100.00;101806.41;5073483;28;20481;-51
2023/12/15 05:43:27;;;;;;;0.20;0.10;;;;;;;5.34;100.00;101806.47;5067761;28;20477;-51
2023/12/15 05:45:54;;;;;;;0.20;0.10;;;;;;;5.38;100.00;101808.31;5059174;28;20870;-51
2023/12/15 05:48:20;;;;;;;0.30;0.20;;;;;;;5.32;100.00;101813.47;5068266;28;20505;-51
2023/12/15 05:50:47;;;;;;;0.30;0.20;;;;;;;5.36;100.00;101812.69;5066093;28;20505;-51
2023/12/15 05:53:14;;;;;;;0.30;0.20;;;;;;;5.32;100.00;101821.38;5069145;28;20488;-51
2023/12/15 05:55:40;;;;;;;0.30;0.20;;;;;;;5.31;100.00;101817.84;5070747;28;20454;-52
2023/12/15 05:58:06;;;;;;;0.30;0.20;;;;;;;5.32;100.00;101818.72;5056732;28;20486;-51
2023/12/15 06:00:33;;;;;;;0.30;0.10;;;;;;;5.46;100.00;101826.88;5069571;28;20446;-52
2023/12/15 06:02:59;;;;;;;0.30;0.10;;;;;;;5.42;100.00;101833.88;5073234;28;20553;-51
2023/12/15 06:05:27;;;;;;;0.30;0.20;;;;;;;5.24;100.00;101830.91;5069663;28;20446;-51
2023/12/15 06:07:54;;;;;;;5.07;4.73;;;;;;;5.26;100.00;101834.47;5063937;28;20489;-51
2023/12/15 06:10:21;;;;;;;0.30;0.20;;;;;;;5.23;100.00;101837.94;5068763;28;20450;-51
2023/12/15 06:12:47;;;;;;;0.30;0.20;;;;;;;5.10;100.00;101838.56;5072691;28;20497;-51
2023/12/15 06:15:14;;;;;;;0.30;0.10;;;;;;;5.18;100.00;101843.97;5073062;28;20445;-51
2023/12/15 06:17:40;;;;;;;1.73;1.63;;;;;;;5.12;100.00;101843.84;5060813;28;20504;-51
2023/12/15 06:20:08;;;;;;;0.30;0.30;;;;;;;5.14;100.00;101845.66;5069062;28;20487;-51
2023/12/15 06:22:35;;;;;;;0.20;0.20;;;;;;;5.17;100.00;101840.44;5072673;28;20481;-50
2023/12/15 06:25:01;;;;;;;0.30;0.20;;;;;;;5.06;100.00;101837.59;5072499;28;20453;-51
2023/12/15 06:27:28;;;;;;;0.30;0.20;;;;;;;4.84;100.00;101832.78;5072586;28;20457;-51
2023/12/15 06:29:54;;;;;;;0.30;0.20;;;;;;;4.93;100.00;101847.88;5068945;28;20862;-51
2023/12/15 06:32:21;;;;;;;0.30;0.10;;;;;;;4.99;100.00;101854.16;5072666;28;20457;-52
2023/12/15 06:34:47;;;;;;;0.23;0.20;;;;;;;4.93;100.00;101848.75;5072501;28;20453;-51
2023/12/15 06:37:14;;;;;;;0.27;0.10;;;;;;;5.04;100.00;101859.50;5072494;28;20452;-52
2023/12/15 06:39:40;;;;;;;0.30;0.20;;;;;;;5.11;100.00;101857.91;5072131;28;20994;-52
2023/12/15 06:42:07;;;;;;;0.30;0.10;;;;;;;5.10;100.00;101850.84;5072081;28;20512;-52
2023/12/15 06:44:33;;;;;;;0.30;0.20;;;;;;;5.24;100.00;101854.63;5067907;28;20457;-51
2023/12/15 06:47:00;;;;;;;0.20;0.20;;;;;;;5.19;100.00;101858.91;5064039;28;20482;-51
2023/12/15 06:49:30;;;;;;;0.30;0.20;;;;;;;5.11;100.00;101847.34;5057581;28;20520;-51
2023/12/15 06:51:58;;;;;;;0.27;0.20;;;;;;;5.16;100.00;101853.59;5067454;28;20496;-54
2023/12/15 06:54:25;;;;;;;0.30;0.20;;;;;;;5.26;100.00;101858.19;5067155;28;20457;-51
2023/12/15 06:56:51;;;;;;;0.30;0.17;;;;;;;5.32;100.00;101860.91;5063652;28;20457;-50
2023/12/15 06:59:18;;;;;;;0.20;0.20;;;;;;;5.29;100.00;101861.75;5062328;28;20489;-50
2023/12/15 07:01:44;;;;;;;0.30;0.20;;;;;;;5.25;100.00;101872.22;5052881;28;20470;-51
2023/12/15 07:04:11;;;;;;;0.20;0.10;;;;;;;5.33;100.00;101875.88;5066869;28;20999;-51
2023/12/15 07:06:37;;;;;;;0.23;0.20;;;;;;;5.30;100.00;101870.56;5072380;28;20533;-52
2023/12/15 07:09:04;;;;;;;0.30;0.10;;;;;;;5.29;100.00;101880.22;5056515;28;20462;-51
2023/12/15 07:11:30;;;;;;;0.20;0.20;;;;;;;5.18;100.00;101880.88;5064026;28;20470;-51
2023/12/15 07:13:57;;;;;;;0.20;0.10;;;;;;;5.16;100.00;101882.59;5071841;28;20450;-51
2023/12/15 07:16:23;;;;;;;0.23;0.20;;;;;;;5.27;100.00;101887.19;5071001;28;20478;-52
2023/12/15 07:18:50;;;;;;;0.30;0.20;;;;;;;4.97;100.00;101879.59;5060361;28;20934;-52
2023/12/15 07:21:17;;;;;;;0.20;0.13;;;;;;;5.17;100.00;101892.25;5060154;28;20454;-51
2023/12/15 07:23:43;;;;;;;0.20;0.20;;;;;;;5.28;100.00;101883.72;5066104;28;20533;-52
2023/12/15 07:26:10;;;;;;;0.30;0.17;;;;;;;5.30;100.00;101881.09;5064034;28;20453;-50
2023/12/15 07:28:36;;;;;;;0.20;0.20;;;;;;;5.30;100.00;101883.72;5066747;28;20452;-51
2023/12/15 07:31:03;;;;;;;0.20;0.13;;;;;;;5.32;100.00;101882.91;5051480;28;20966;-51
2023/12/15 07:33:29;;;;;;;0.30;0.10;;;;;;;5.37;100.00;101888.28;5051272;28;20455;-51
2023/12/15 07:35:56;;;;;;;0.23;0.10;;;;;;;5.36;100.00;101899.69;5051649;28;20921;-51
2023/12/15 07:38:23;;;;;;;0.30;0.20;;;;;;;5.40;100.00;101909.41;5051410;28;20486;-52
2023/12/15 07:40:54;;;;;;;0.20;0.10;;;;;;;5.29;100.00;101914.47;5051403;28;20450;-52
2023/12/15 07:43:21;;;;;;;0.20;0.10;;;;;;;5.32;100.00;101914.53;5051575;28;20473;-51
2023/12/15 07:45:47;;;;;;;0.30;0.20;;;;;;;5.35;100.00;101926.91;5054420;28;20454;-58
2023/12/15 07:48:13;;;;;;;0.30;0.20;;;;;;;5.48;100.00;101934.19;5052742;28;20538;-57
2023/12/15 07:50:40;;;;;;;0.20;0.10;;;;;;;5.52;100.00;101935.13;5055354;28;20462;-58
2023/12/15 07:53:06;;;;;;;0.23;0.20;;;;;;;5.65;100.00;101942.41;5057770;28;20986;-56
2023/12/15 07:55:33;;;;;;;0.30;0.20;;;;;;;5.74;100.00;101947.81;5071102;28;20454;-59
2023/12/15 07:57:59;;;;;;;0.30;0.10;;;;;;;5.92;100.00;101940.28;5060740;28;20545;-59
2023/12/15 08:00:26;;;;;;;0.30;0.20;;;;;;;5.93;100.00;101947.34;5065362;28;20500;-61
2023/12/15 08:02:52;;;;;;;0.30;0.20;;;;;;;5.91;100.00;101950.81;5072942;28;20974;-61
2023/12/15 08:05:19;;;;;;;0.30;0.20;;;;;;;5.88;100.00;101945.44;5073669;28;20969;-59
2023/12/15 08:07:46;;;;;;;0.20;0.17;;;;;;;5.96;100.00;101946.50;5070402;28;20457;-58
2023/12/15 08:10:12;;;;;;;0.30;0.20;;;;;;;6.05;100.00;101957.22;5073297;28;20440;-59
2023/12/15 08:12:38;;;;;;;0.30;0.20;;;;;;;6.04;100.00;101952.81;5075478;28;20476;-59
2023/12/15 08:15:05;;;;;;;0.30;0.20;;;;;;;6.12;100.00;101953.81;5071316;28;20450;-58
2023/12/15 08:17:33;;;;;;;0.30;0.20;;;;;;;6.17;100.00;101957.44;5074613;28;20442;-59
2023/12/15 08:20:02;;;;;;;0.30;0.20;;;;;;;6.27;100.00;101965.47;5070282;28;20590;-52
2023/12/15 08:22:28;;;;;;;0.30;0.20;;;;;;;6.38;100.00;101963.91;5075011;28;20837;-51
2023/12/15 08:24:55;;;;;;;0.20;0.10;;;;;;;6.46;100.00;101965.81;5069603;28;20602;-53
2023/12/15 08:27:21;;;;;;;0.30;0.20;;;;;;;6.47;100.00;101964.06;5072632;28;20540;-52
2023/12/15 08:29:48;;;;;;;0.30;0.20;;;;;;;6.61;100.00;101965.16;5058873;28;20943;-52
2023/12/15 08:32:15;;;;;;;0.30;0.20;;;;;;;6.57;100.00;101971.22;5054920;28;20474;-52
2023/12/15 08:34:42;;;;;;;0.30;0.20;;;;;;;6.69;100.00;101974.06;5060935;28;20476;-52
2023/12/15 08:37:09;;;;;;;0.30;0.20;;;;;;;6.79;100.00;101965.41;5067896;28;21013;-51
2023/12/15 08:39:35;;;;;;;0.30;0.20;;;;;;;6.86;100.00;101966.38;5061511;28;20486;-52
2023/12/15 08:42:02;;;;;;;0.30;0.20;;;;;;;6.80;100.00;101975.09;5069648;28;20473;-51
2023/12/15 08:44:29;;;;;;;0.30;0.20;;;;;;;6.83;100.00;101975.13;5058912;28;20624;-52
2023/12/15 08:47:00;;;;;;;0.30;0.20;;;;;;;6.83;100.00;101975.13;5057873;28;20455;-52
2023/12/15 08:49:27;;;;;;;0.30;0.20;;;;;;;6.94;100.00;101979.69;5059869;28;20511;-52
2023/12/15 08:51:55;;;;;;;0.30;0.20;;;;;;;7.06;100.00;101987.78;5074549;28;20847;-52
2023/12/15 08:54:21;;;;;;;0.30;0.20;;;;;;;6.93;100.00;101997.31;5074304;28;20515;-51
2023/12/15 08:56:48;;;;;;;0.30;0.20;;;;;;;7.02;100.00;101996.56;5063334;28;20446;-52
2023/12/15 08:59:14;;;;;;;0.30;0.20;;;;;;;7.10;100.00;101984.31;5072288;28;20884;-51
2023/12/15 09:01:41;;;;;;;0.30;0.20;;;;;;;7.12;100.00;101990.50;5074235;28;20469;-51
2023/12/15 09:04:07;;;;;;;0.30;0.20;;;;;;;7.26;100.00;101980.09;5074115;28;20450;-51
2023/12/15 09:06:34;;;;;;;0.30;0.20;;;;;;;7.12;100.00;101985.22;5074435;28;20445;-51
2023/12/15 09:09:10;;;;;;;0.70;0.67;;;;;;;7.27;100.00;101993.34;5060510;28;20441;-52
2023/12/15 09:11:38;;;;;;;0.30;0.20;;;;;;;7.42;100.00;102008.53;5074167;28;20472;-52
2023/12/15 09:14:04;;;;;;;0.30;0.20;;;;;;;7.32;100.00;102012.81;5074021;28;20934;-51
2023/12/15 09:16:31;;;;;;;0.30;0.20;;;;;;;7.45;100.00;102018.25;5074015;28;20508;-52
2023/12/15 09:18:58;;;;;;;0.30;0.20;;;;;;;7.59;100.00;102024.59;5067523;28;20493;-51
2023/12/15 09:21:24;;;;;;;0.30;0.20;;;;;;;7.63;100.00;102026.41;5073982;28;20970;-50
2023/12/15 09:23:56;;;;;;;0.40;0.20;;;;;;;7.63;100.00;102037.88;5073942;28;20450;-50
2023/12/15 09:26:22;;;;;;;0.30;0.20;;;;;;;7.83;100.00;102040.75;5073832;28;20537;-51
2023/12/15 09:28:49;;;;;;;0.30;0.20;;;;;;;7.81;100.00;102050.44;5073822;28;21049;-52
2023/12/15 09:31:15;;;;;;;0.30;0.20;;;;;;;8.01;100.00;102043.59;5073650;28;20481;-52
2023/12/15 09:33:42;;;;;;;0.30;0.20;;;;;;;7.87;100.00;102050.50;5073803;28;20545;-52
2023/12/15 09:36:09;;;;;;;0.30;0.20;;;;;;;7.97;100.00;102065.63;5073749;28;20540;-51
2023/12/15 09:38:35;;;;;;;0.30;0.20;;;;;;;7.95;100.00;102067.38;5073984;28;20450;-52
2023/12/15 09:41:02;;;;;;;0.30;0.20;;;;;;;8.02;100.00;102065.66;5073590;28;20461;-52
2023/12/15 09:43:28;;;;;;;0.30;0.20;;;;;;;8.08;100.00;102067.47;5073491;28;20465;-51
2023/12/15 09:45:59;;;;;;;0.30;0.20;;;;;;;8.01;100.00;102071.81;5073736;28;20446;-51
2023/12/15 09:48:27;;;;;;;0.30;0.20;;;;;;;7.98;100.00;102074.44;5065466;28;20882;-52
2023/12/15 09:50:56;;;;;;;0.30;0.20;;;;;;;8.00;100.00;102073.59;5069402;28;20454;-52
2023/12/15 09:53:24;;;;;;;0.30;0.20;;;;;;;8.08;100.00;102071.00;5073764;28;20523;-53
2023/12/15 09:55:51;;;;;;;0.30;0.20;;;;;;;8.16;100.00;102081.69;5070106;28;20965;-53
2023/12/15 09:58:18;;;;;;;0.30;0.20;;;;;;;8.40;100.00;102081.97;5063593;28;20818;-53
2023/12/15 10:00:45;;;;;;;2.70;2.60;;;;;;;8.33;100.00;102078.31;5069596;28;20575;-53
2023/12/15 10:03:14;;;;;;;0.30;0.20;;;;;;;8.48;100.00;102077.59;5062211;28;20477;-53
2023/12/15 10:05:41;;;;;;;0.30;0.20;;;;;;;8.85;100.00;102080.56;5056242;28;20451;-53
2023/12/15 10:08:08;;;;;;;0.30;0.20;;;;;;;9.14;100.00;102071.03;5062441;28;20477;-53
2023/12/15 10:10:35;;;;;;;0.30;0.20;;;;;;;9.19;100.00;102077.28;5067876;28;20454;-53
2023/12/15 10:13:01;;;;;;;0.30;0.20;;;;;;;9.11;100.00;102075.44;5071335;28;20560;-54
2023/12/15 10:15:28;;;;;;;0.30;0.20;;;;;;;9.22;100.00;102078.16;5058600;28;20452;-53
2023/12/15 10:17:57;;;;;;;0.30;0.20;;;;;;;9.23;100.00;102075.53;5069127;28;20546;-53
2023/12/15 10:20:24;;;;;;;0.30;0.20;;;;;;;9.42;100.00;102089.75;5070635;28;21051;-54
2023/12/15 10:23:03;;;;;;;0.30;0.20;;;;;;;9.57;100.00;102089.84;5072985;28;20473;-52
2023/12/15 10:25:29;;;;;;;0.30;0.20;;;;;;;9.33;99.97;102090.63;5060012;28;20441;-52
2023/12/15 10:27:58;;;;;;;0.30;0.20;;;;;;;9.15;100.00;102104.66;5065949;28;20545;-52
2023/12/15 10:30:28;;;;;;;0.30;0.20;;;;;;;9.18;100.00;102103.78;5072861;28;20553;-52
2023/12/15 10:32:58;;;;;;;0.30;0.20;;;;;;;9.37;98.83;102107.44;5072423;28;20877;-52
2023/12/15 10:35:25;;;;;;;0.30;0.20;;;;;;;9.18;99.17;102115.31;5072639;28;20537;-53
2023/12/15 10:37:53;;;;;;;3.23;3.03;;;;;;;9.35;99.45;102122.47;5069544;28;20480;-53
2023/12/15 10:40:20;;;;;;;0.30;0.20;;;;;;;9.55;98.75;102109.28;5062844;28;20936;-53
2023/12/15 10:42:47;;;;;;;0.30;0.20;;;;;;;9.79;98.27;102115.63;5060345;28;20478;-54
2023/12/15 10:45:14;;;;;;;0.30;0.20;;;;;;;9.18;99.75;102125.00;5070955;28;20454;-54
2023/12/15 10:47:41;;;;;;;0.30;0.20;;;;;;;9.63;98.78;102126.16;5066554;28;20530;-53
2023/12/15 10:50:09;;;;;;;0.30;0.20;;;;;;;9.67;98.42;102115.56;5052326;28;20949;-53
2023/12/15 10:52:36;;;;;;;0.30;0.20;;;;;;;9.58;98.25;102117.28;5052483;28;20486;-51
2023/12/15 10:55:06;;;;;;;0.33;0.27;;;;;;;9.60;98.32;102120.84;5059357;28;20509;-51
2023/12/15 10:57:32;;;;;;;0.30;0.20;;;;;;;9.65;98.33;102121.75;5062506;28;20454;-52
2023/12/15 11:00:00;;;;;;;0.30;0.20;;;;;;;9.80;98.32;102119.16;5053749;28;20482;-52
2023/12/15 11:02:30;;;;;;;0.30;0.20;;;;;;;9.54;98.11;102124.34;5072075;28;20560;-52
2023/12/15 11:04:59;;;;;;;0.30;0.20;;;;;;;9.24;99.62;102135.66;5072164;28;20452;-52
2023/12/15 11:07:28;;;;;;;0.30;0.20;;;;;;;9.20;100.00;102134.78;5058747;28;20815;-52
2023/12/15 11:09:56;;;;;;;0.30;0.20;;;;;;;9.07;100.00;102127.59;5072149;28;21023;-52
2023/12/15 11:12:33;;;;;;;0.30;0.20;;;;;;;9.17;100.00;102128.53;5070822;28;20465;-52
2023/12/15 11:15:11;;;;;;;0.30;0.20;;;;;;;9.04;100.00;102134.63;5072021;28;20446;-52
2023/12/15 11:17:49;;;;;;;0.30;0.20;;;;;;;8.93;100.00;102144.28;5070484;28;20511;-52
2023/12/15 11:20:18;;;;;;;0.30;0.20;;;;;;;8.90;100.00;102150.44;5069541;28;20553;-52
2023/12/15 11:22:58;;;;;;;0.30;0.20;;;;;;;8.87;100.00;102145.09;5060978;28;20475;-52
2023/12/15 11:25:26;;;;;;;0.30;0.20;;;;;;;8.86;100.00;102149.53;5071620;28;20442;-53